Time;durP1;ratioP1;P1;durP2;ratioP2;P2;SDS_P1;SDS_P2;PMS_P1;PMS_P2;Temp;Humidity;BMP_temperature;BMP_pressure;BME280_temperature;BME280_humidity;BME280_pressure;Samples;Min_cycle;Max_cycle;Signal;HPM_P1;HPM_P2
2024/01/04 00:01:23;;;;;;;1.97;1.53;;;11.00;99.90;;;;;;5086759;28;20478;-73
2024/01/04 00:03:49;;;;;;;2.60;1.60;;;11.00;99.90;;;;;;5068872;28;20701;-73
2024/01/04 00:06:20;;;;;;;1.83;1.23;;;11.00;99.90;;;;;;5091036;28;20453;-73
2024/01/04 00:08:48;;;;;;;2.80;1.70;;;11.00;99.90;;;;;;5086749;28;20467;-73
2024/01/04 00:11:16;;;;;;;3.77;2.03;;;11.00;99.90;;;;;;5096184;28;20432;-73
2024/01/04 00:13:45;;;;;;;3.47;1.60;;;11.00;99.90;;;;;;5099378;28;20481;-73
2024/01/04 00:16:13;;;;;;;3.00;1.60;;;11.00;99.90;;;;;;5082495;28;20449;-73
2024/01/04 00:18:48;;;;;;;2.37;1.80;;;11.00;99.90;;;;;;5099497;28;20902;-73
2024/01/04 00:21:14;;;;;;;2.67;1.77;;;11.00;99.90;;;;;;5095384;28;20467;-73
2024/01/04 00:23:42;;;;;;;3.07;1.93;;;11.00;99.90;;;;;;5099009;28;20509;-73
2024/01/04 00:26:08;;;;;;;4.33;1.67;;;11.00;99.90;;;;;;5088568;28;20452;-73
2024/01/04 00:28:38;;;;;;;2.20;1.50;;;11.00;99.90;;;;;;5087629;28;20564;-73
2024/01/04 00:31:05;;;;;;;2.70;1.83;;;11.00;99.90;;;;;;5093486;28;20468;-73
2024/01/04 00:33:33;;;;;;;3.87;1.90;;;11.00;99.90;;;;;;5088194;28;20526;-73
2024/01/04 00:35:59;;;;;;;6.17;2.10;;;11.00;99.90;;;;;;5087233;28;20764;-73
2024/01/04 00:38:28;;;;;;;2.27;1.90;;;11.00;99.90;;;;;;5092159;28;20440;-73
2024/01/04 00:40:56;;;;;;;3.00;1.70;;;11.00;99.90;;;;;;5070190;28;21090;-73
2024/01/04 00:43:22;;;;;;;5.67;1.80;;;11.00;99.90;;;;;;5088207;28;20981;-73
2024/01/04 00:45:50;;;;;;;5.03;2.27;;;11.00;99.90;;;;;;5074585;28;20451;-73
2024/01/04 00:48:16;;;;;;;4.73;2.33;;;11.00;99.90;;;;;;5067446;28;20901;-73
2024/01/04 00:50:45;;;;;;;3.87;2.17;;;11.00;99.90;;;;;;5072297;28;21022;-73
2024/01/04 00:53:11;;;;;;;4.30;2.37;;;11.00;99.90;;;;;;5076263;28;20453;-73
2024/01/04 00:55:42;;;;;;;2.23;2.03;;;11.00;99.90;;;;;;5073444;28;20562;-73
2024/01/04 00:58:08;;;;;;;3.70;2.20;;;11.00;99.90;;;;;;5072090;28;20440;-73
2024/01/04 01:00:39;;;;;;;5.33;2.77;;;11.00;99.90;;;;;;5094188;28;20432;-73
2024/01/04 01:03:06;;;;;;;4.13;2.60;;;11.00;99.90;;;;;;5091070;28;20483;-73
2024/01/04 01:05:32;;;;;;;4.90;2.47;;;11.00;99.90;;;;;;5092790;28;20464;-73
2024/01/04 01:08:01;;;;;;;6.20;2.50;;;11.00;99.90;;;;;;5093800;28;21209;-73
2024/01/04 01:10:34;;;;;;;3.23;2.00;;;11.00;99.90;;;;;;5089637;28;20449;-73
2024/01/04 01:13:02;;;;;;;3.20;2.50;;;11.00;99.90;;;;;;5096241;28;20919;-73
2024/01/04 01:15:31;;;;;;;4.60;2.10;;;11.00;99.90;;;;;;5094547;28;20790;-73
2024/01/04 01:18:00;;;;;;;5.13;2.20;;;11.00;99.90;;;;;;5074389;28;20452;-73
2024/01/04 01:20:26;;;;;;;3.80;2.60;;;11.00;99.90;;;;;;5070489;28;20519;-73
2024/01/04 01:22:52;;;;;;;8.90;2.67;;;11.00;99.90;;;;;;5090969;28;20915;-73
2024/01/04 01:25:18;;;;;;;6.50;2.70;;;10.90;99.90;;;;;;5100336;27;20467;-73
2024/01/04 01:27:44;;;;;;;4.50;2.33;;;11.00;99.90;;;;;;5075094;28;20465;-73
2024/01/04 01:30:15;;;;;;;6.50;2.57;;;10.90;99.90;;;;;;5080641;28;21122;-73
2024/01/04 01:32:45;;;;;;;6.23;2.70;;;11.00;99.90;;;;;;5090375;28;20515;-73
2024/01/04 01:35:16;;;;;;;7.07;2.47;;;10.90;99.90;;;;;;5092813;28;20543;-73
2024/01/04 01:37:44;;;;;;;4.47;3.17;;;10.90;99.90;;;;;;5083520;28;20429;-73
2024/01/04 01:40:10;;;;;;;3.17;2.80;;;10.90;99.90;;;;;;5086360;28;20423;-73
2024/01/04 01:42:38;;;;;;;4.30;2.77;;;10.90;99.90;;;;;;5069299;28;20463;-73
2024/01/04 01:45:11;;;;;;;4.30;3.23;;;11.00;99.90;;;;;;5089854;28;20503;-72
2024/01/04 01:47:41;;;;;;;8.30;3.43;;;11.00;99.90;;;;;;5073887;28;20460;-73
2024/01/04 01:50:10;;;;;;;5.50;3.73;;;10.90;99.90;;;;;;5099308;28;21213;-73
2024/01/04 01:52:36;;;;;;;4.53;3.17;;;10.90;99.90;;;;;;5083244;28;20456;-73
2024/01/04 01:55:07;;;;;;;5.03;3.10;;;10.90;99.90;;;;;;5085217;28;20457;-72
2024/01/04 01:57:35;;;;;;;6.13;2.67;;;11.00;99.90;;;;;;5096134;28;20507;-73
2024/01/04 02:00:02;;;;;;;4.70;3.33;;;10.90;99.90;;;;;;5094074;28;20440;-73
2024/01/04 02:02:43;;;;;;;4.83;3.13;;;11.00;99.90;;;;;;5101644;28;20462;-73
2024/01/04 02:05:12;;;;;;;3.40;3.00;;;10.90;99.90;;;;;;5081448;28;20428;-73
2024/01/04 02:07:41;;;;;;;5.10;3.60;;;10.90;99.90;;;;;;5092131;28;20468;-73
2024/01/04 02:10:07;;;;;;;4.60;2.87;;;10.90;99.90;;;;;;5081706;28;20464;-73
2024/01/04 02:12:33;;;;;;;3.10;2.77;;;10.90;99.90;;;;;;5092579;28;20531;-73
2024/01/04 02:15:00;;;;;;;7.23;3.40;;;10.90;99.90;;;;;;5094080;28;20424;-72
2024/01/04 02:17:30;;;;;;;7.93;3.43;;;10.90;99.90;;;;;;5092035;28;20490;-73
2024/01/04 02:19:58;;;;;;;4.37;3.20;;;10.90;99.90;;;;;;5081385;28;20529;-73
2024/01/04 02:22:24;;;;;;;7.30;3.30;;;10.90;99.90;;;;;;5097321;28;20802;-73
2024/01/04 02:24:50;;;;;;;7.07;2.90;;;10.90;99.90;;;;;;5080719;28;20436;-73
2024/01/04 02:27:17;;;;;;;3.50;2.73;;;10.90;99.90;;;;;;5098454;28;20600;-73
2024/01/04 02:29:43;;;;;;;3.13;2.83;;;10.90;99.90;;;;;;5096177;28;20509;-73
2024/01/04 02:32:09;;;;;;;3.80;2.70;;;10.90;99.90;;;;;;5087692;28;20456;-73
2024/01/04 02:34:35;;;;;;;3.23;2.93;;;10.90;99.90;;;;;;5095926;28;20563;-73
2024/01/04 02:37:03;;;;;;;6.50;2.90;;;11.00;99.90;;;;;;5094930;28;20990;-72
2024/01/04 02:39:29;;;;;;;4.07;2.90;;;10.90;99.90;;;;;;5081846;28;20424;-72
2024/01/04 02:41:58;;;;;;;4.40;3.27;;;11.00;99.90;;;;;;5074824;28;20445;-72
2024/01/04 02:44:26;;;;;;;3.07;2.60;;;10.90;99.90;;;;;;5091003;28;20439;-72
2024/01/04 02:46:53;;;;;;;3.40;2.50;;;10.90;99.90;;;;;;5078088;28;20456;-72
2024/01/04 02:49:19;;;;;;;4.00;2.80;;;10.90;99.90;;;;;;5085124;28;21006;-72
2024/01/04 02:51:47;;;;;;;4.20;2.37;;;10.90;99.90;;;;;;5092828;28;20456;-72
2024/01/04 02:54:18;;;;;;;4.03;2.67;;;10.90;99.90;;;;;;5079754;28;20443;-72
2024/01/04 02:56:48;;;;;;;3.60;3.03;;;10.90;99.90;;;;;;5093593;28;20466;-72
2024/01/04 02:59:14;;;;;;;5.10;2.70;;;10.90;99.90;;;;;;5056334;28;20439;-72
2024/01/04 03:01:48;;;;;;;3.73;2.40;;;10.90;99.90;;;;;;5084409;28;20617;-72
2024/01/04 03:04:15;;;;;;;4.83;2.63;;;10.90;99.90;;;;;;5095267;28;20448;-72
2024/01/04 03:06:44;;;;;;;9.27;2.40;;;10.90;99.90;;;;;;5093362;28;20489;-72
2024/01/04 03:09:12;;;;;;;7.30;3.00;;;10.90;99.90;;;;;;5072755;28;20471;-72
2024/01/04 03:11:38;;;;;;;3.07;2.00;;;10.90;99.90;;;;;;5075342;28;20543;-72
2024/01/04 03:14:09;;;;;;;3.90;2.43;;;10.90;99.90;;;;;;5077739;28;20442;-72
2024/01/04 03:16:35;;;;;;;2.57;2.03;;;10.90;99.90;;;;;;5078249;28;21174;-72
2024/01/04 03:19:06;;;;;;;2.17;1.97;;;10.90;99.90;;;;;;5084884;28;20997;-72
2024/01/04 03:21:32;;;;;;;4.13;2.50;;;10.90;99.90;;;;;;5089371;28;20444;-72
2024/01/04 03:24:00;;;;;;;1.90;1.80;;;10.90;99.90;;;;;;5077306;28;21534;-72
2024/01/04 03:26:26;;;;;;;4.87;2.13;;;10.90;99.90;;;;;;5070887;28;20452;-72
2024/01/04 03:28:57;;;;;;;2.60;1.90;;;10.90;99.90;;;;;;5088290;28;20464;-72
2024/01/04 03:31:27;;;;;;;3.40;2.20;;;10.90;99.90;;;;;;5059497;28;20552;-70
2024/01/04 03:34:21;;;;;;;6.70;2.30;;;10.90;99.90;;;;;;5006774;28;20557;-31
2024/01/04 03:36:47;;;;;;;2.97;2.13;;;10.90;99.90;;;;;;4998375;28;20508;-33
2024/01/04 03:39:13;;;;;;;3.47;2.17;;;10.90;99.90;;;;;;4995858;28;20456;-40
2024/01/04 03:41:41;;;;;;;5.97;2.17;;;10.90;99.90;;;;;;4997599;28;21205;-39
2024/01/04 03:44:14;;;;;;;4.30;1.90;;;10.90;99.90;;;;;;4998763;28;20439;-37
2024/01/04 03:46:40;;;;;;;6.37;2.30;;;10.90;99.90;;;;;;5000552;28;20479;-37
2024/01/04 03:49:07;;;;;;;3.40;1.90;;;10.90;99.90;;;;;;4999591;28;20535;-35
2024/01/04 03:51:33;;;;;;;6.07;2.70;;;10.90;99.90;;;;;;5000749;28;20804;-36
2024/01/04 03:53:59;;;;;;;3.50;2.33;;;10.90;99.90;;;;;;5001964;28;20428;-37
2024/01/04 03:56:26;;;;;;;3.60;1.93;;;10.90;99.90;;;;;;5002381;28;20430;-32
2024/01/04 03:58:52;;;;;;;5.17;2.70;;;10.90;99.90;;;;;;4999577;28;20480;-33
2024/01/04 04:01:18;;;;;;;3.53;2.97;;;10.90;99.90;;;;;;5002536;28;21037;-36
2024/01/04 04:03:43;;;;;;;3.10;2.30;;;10.90;99.90;;;;;;4994759;28;20429;-31
2024/01/04 04:06:18;;;;;;;10.93;2.73;;;10.90;99.90;;;;;;5001337;28;20475;-36
2024/01/04 04:08:44;;;;;;;4.80;2.70;;;10.90;99.90;;;;;;5000045;28;20820;-38
2024/01/04 04:11:18;;;;;;;4.83;3.20;;;10.90;99.90;;;;;;5001087;28;20436;-38
2024/01/04 04:13:44;;;;;;;4.00;3.10;;;10.80;99.90;;;;;;4999432;28;20840;-31
2024/01/04 04:16:12;;;;;;;3.17;2.60;;;10.80;99.90;;;;;;5015687;28;20425;-35
2024/01/04 04:18:38;;;;;;;6.40;3.47;;;10.90;99.90;;;;;;5001158;28;20534;-35
2024/01/04 04:21:04;;;;;;;4.30;2.80;;;10.90;99.90;;;;;;5015914;28;20440;-34
2024/01/04 04:23:31;;;;;;;6.70;3.50;;;10.80;99.90;;;;;;5001212;28;20447;-34
2024/01/04 04:26:07;;;;;;;3.87;3.17;;;10.80;99.90;;;;;;5000875;28;20432;-34
2024/01/04 04:28:32;;;;;;;7.00;3.13;;;10.90;99.90;;;;;;5001129;28;20503;-37
2024/01/04 04:31:03;;;;;;;5.50;3.47;;;10.80;99.90;;;;;;5001438;28;20445;-31
2024/01/04 04:33:29;;;;;;;5.50;3.17;;;10.80;99.90;;;;;;5001232;28;20468;-40
2024/01/04 04:35:55;;;;;;;3.57;2.87;;;10.80;99.90;;;;;;5000998;28;20524;-35
2024/01/04 04:38:23;;;;;;;4.20;3.13;;;10.90;99.90;;;;;;4980163;28;20465;-31
2024/01/04 04:40:56;;;;;;;6.03;2.97;;;10.80;99.90;;;;;;4999655;28;20476;-37
2024/01/04 04:43:22;;;;;;;5.97;3.60;;;10.80;99.90;;;;;;4999559;28;20523;-35
2024/01/04 04:45:50;;;;;;;3.80;2.90;;;10.80;99.90;;;;;;5000903;28;21205;-37
2024/01/04 04:48:16;;;;;;;3.90;2.77;;;10.80;99.90;;;;;;5000454;28;20553;-38
2024/01/04 04:50:43;;;;;;;8.00;3.13;;;10.80;99.90;;;;;;5000613;28;20436;-38
2024/01/04 04:53:11;;;;;;;2.80;2.20;;;10.80;99.90;;;;;;5000369;28;20516;-36
2024/01/04 04:55:38;;;;;;;5.83;2.50;;;10.80;99.90;;;;;;4997887;28;21008;-35
2024/01/04 04:58:24;;;;;;;6.77;2.90;;;10.80;99.90;;;;;;5000477;28;20518;-34
2024/01/04 05:00:50;;;;;;;3.97;2.50;;;10.80;99.90;;;;;;5011325;28;20547;-38
2024/01/04 05:03:16;;;;;;;3.43;2.30;;;10.80;99.90;;;;;;4999888;28;20440;-38
2024/01/04 05:05:45;;;;;;;2.93;2.20;;;10.80;99.90;;;;;;4996371;28;21286;-37
2024/01/04 05:08:11;;;;;;;2.87;2.50;;;10.80;99.90;;;;;;4998825;28;20476;-38
2024/01/04 05:10:44;;;;;;;3.60;3.13;;;10.80;99.90;;;;;;5000667;28;20448;-38
2024/01/04 05:13:11;;;;;;;4.23;3.53;;;10.80;99.90;;;;;;4998649;28;20428;-33
2024/01/04 05:15:37;;;;;;;6.87;2.80;;;10.80;99.90;;;;;;5014887;28;20440;-37
2024/01/04 05:18:08;;;;;;;4.20;2.33;;;10.80;99.90;;;;;;4999613;28;20449;-37
2024/01/04 05:20:38;;;;;;;4.87;3.10;;;10.80;99.90;;;;;;4999757;28;20442;-37
2024/01/04 05:23:07;;;;;;;4.40;2.73;;;10.80;99.90;;;;;;4999363;28;20444;-34
2024/01/04 05:25:36;;;;;;;3.20;2.80;;;10.80;99.90;;;;;;4999840;28;20428;-37
2024/01/04 05:28:02;;;;;;;4.37;2.80;;;10.80;99.90;;;;;;4997468;28;20468;-38
2024/01/04 05:30:28;;;;;;;5.10;3.20;;;10.80;99.90;;;;;;4997683;28;20887;-37
2024/01/04 05:32:54;;;;;;;5.37;2.77;;;10.80;99.90;;;;;;4999067;28;20480;-34
2024/01/04 05:35:26;;;;;;;6.70;3.47;;;10.80;99.90;;;;;;4999454;28;20425;-37
2024/01/04 05:37:52;;;;;;;6.47;2.97;;;10.80;99.90;;;;;;5014240;28;20546;-36
2024/01/04 05:40:18;;;;;;;5.80;3.70;;;10.80;99.90;;;;;;4999100;28;21248;-32
2024/01/04 05:42:44;;;;;;;3.87;3.00;;;10.80;99.90;;;;;;4977496;28;21388;-34
2024/01/04 05:45:12;;;;;;;6.00;3.83;;;10.80;99.90;;;;;;4998787;28;21013;-37
2024/01/04 05:47:38;;;;;;;10.07;3.83;;;10.80;99.90;;;;;;5014068;28;20568;-35
2024/01/04 05:50:07;;;;;;;4.83;3.30;;;10.80;99.90;;;;;;4996444;28;20891;-37
2024/01/04 05:52:33;;;;;;;6.50;4.60;;;10.80;99.90;;;;;;4997483;28;20425;-35
2024/01/04 05:55:02;;;;;;;8.47;4.20;;;10.80;99.90;;;;;;4998098;28;21019;-38
2024/01/04 05:57:31;;;;;;;7.33;4.43;;;10.80;99.90;;;;;;4997671;28;20448;-32
2024/01/04 05:59:59;;;;;;;6.73;4.40;;;10.80;99.90;;;;;;4998875;28;20562;-39
2024/01/04 06:02:27;;;;;;;9.27;4.50;;;10.80;99.90;;;;;;4999808;28;20431;-36
2024/01/04 06:04:54;;;;;;;10.40;4.60;;;10.80;99.90;;;;;;4997691;28;20864;-37
2024/01/04 06:07:24;;;;;;;5.80;4.10;;;10.80;99.90;;;;;;4997221;28;20494;-36
2024/01/04 06:09:50;;;;;;;6.40;4.70;;;10.80;99.90;;;;;;4999297;28;20511;-36
2024/01/04 06:12:19;;;;;;;8.73;4.77;;;10.80;99.90;;;;;;5001327;28;20483;-38
2024/01/04 06:14:49;;;;;;;5.00;4.60;;;10.80;99.90;;;;;;5036051;22;21099;-25
2024/01/04 06:17:15;;;;;;;7.17;4.90;;;10.80;99.90;;;;;;5042609;28;20417;-27
2024/01/04 06:19:41;;;;;;;7.73;3.97;;;10.80;99.90;;;;;;5025935;28;21116;-26
2024/01/04 06:22:13;;;;;;;6.00;3.97;;;10.70;99.90;;;;;;5038903;28;20527;-27
2024/01/04 06:24:39;;;;;;;12.67;4.13;;;10.80;99.90;;;;;;5039284;28;20442;-27
2024/01/04 06:27:05;;;;;;;4.80;4.03;;;10.80;99.90;;;;;;5038120;28;20472;-28
2024/01/04 06:29:31;;;;;;;5.43;4.10;;;10.80;99.90;;;;;;5035377;28;20474;-26
2024/01/04 06:31:57;;;;;;;5.17;4.27;;;10.80;99.90;;;;;;5030314;28;20431;-27
2024/01/04 06:34:24;;;;;;;4.10;3.70;;;10.80;99.90;;;;;;5036817;28;20431;-28
2024/01/04 06:36:52;;;;;;;3.70;3.40;;;10.80;99.90;;;;;;5025917;28;20424;-27
2024/01/04 06:39:18;;;;;;;3.90;3.27;;;10.80;99.90;;;;;;5036088;28;20446;-26
2024/01/04 06:41:46;;;;;;;5.20;3.70;;;10.80;99.90;;;;;;5028099;28;20427;-25
2024/01/04 06:44:15;;;;;;;4.67;3.63;;;10.80;99.90;;;;;;5038587;28;20476;-26
2024/01/04 06:46:41;;;;;;;5.90;2.97;;;10.80;99.90;;;;;;5035851;28;20464;-27
2024/01/04 06:49:07;;;;;;;3.60;3.00;;;10.80;99.90;;;;;;5032312;28;21521;-27
2024/01/04 06:51:33;;;;;;;4.80;3.40;;;10.80;99.90;;;;;;5027398;28;20452;-24
2024/01/04 06:53:59;;;;;;;4.20;2.80;;;10.80;99.90;;;;;;5024935;28;20283;-26
2024/01/04 06:56:25;;;;;;;3.40;2.90;;;10.80;99.90;;;;;;5034646;28;21234;-26
2024/01/04 06:58:51;;;;;;;3.60;2.93;;;10.80;99.90;;;;;;5051915;28;20492;-27
2024/01/04 07:01:19;;;;;;;3.60;2.40;;;10.80;99.90;;;;;;5051616;28;20211;-27
2024/01/04 07:03:46;;;;;;;3.57;2.70;;;10.80;99.90;;;;;;5026063;28;20435;-25
2024/01/04 07:06:13;;;;;;;3.10;2.90;;;10.80;99.90;;;;;;5030787;28;20434;-25
2024/01/04 07:08:39;;;;;;;3.03;2.60;;;10.70;99.90;;;;;;5029757;28;20470;-25
2024/01/04 07:11:09;;;;;;;4.50;3.10;;;10.80;99.90;;;;;;5044742;28;20419;-27
2024/01/04 07:13:36;;;;;;;2.57;2.37;;;10.80;99.90;;;;;;5025215;28;20522;-25
2024/01/04 07:16:05;;;;;;;4.50;2.87;;;10.80;99.90;;;;;;5029793;28;20815;-26
2024/01/04 07:18:34;;;;;;;2.93;2.47;;;10.80;99.90;;;;;;5031855;28;20985;-26
2024/01/04 07:21:00;;;;;;;3.40;2.67;;;10.70;99.90;;;;;;5031466;28;20435;-24
2024/01/04 07:23:26;;;;;;;3.83;2.40;;;10.70;99.90;;;;;;5026079;28;20435;-24
2024/01/04 07:25:52;;;;;;;2.97;2.50;;;10.70;99.90;;;;;;5041745;28;20517;-23
2024/01/04 07:28:46;;;;;;;2.37;2.00;;;10.70;99.90;;;;;;5043796;28;20515;-24
2024/01/04 07:31:11;;;;;;;3.00;2.27;;;10.70;99.90;;;;;;5037666;28;20430;-25
2024/01/04 07:33:38;;;;;;;6.47;2.97;;;10.70;99.90;;;;;;5041966;28;21098;-25
2024/01/04 07:36:06;;;;;;;2.73;2.00;;;10.70;99.90;;;;;;5041874;28;20523;-26
2024/01/04 07:38:34;;;;;;;2.13;1.97;;;10.70;99.90;;;;;;5040598;28;20533;-25
2024/01/04 07:41:02;;;;;;;3.23;2.40;;;10.70;99.90;;;;;;5039532;28;20466;-27
2024/01/04 07:43:29;;;;;;;2.70;2.10;;;10.70;99.90;;;;;;5041486;28;20427;-25
2024/01/04 07:45:55;;;;;;;2.00;1.90;;;10.70;99.90;;;;;;5044252;28;20437;-25
2024/01/04 07:48:22;;;;;;;2.47;2.20;;;10.70;99.90;;;;;;5038562;28;20473;-25
2024/01/04 07:50:48;;;;;;;3.10;2.10;;;10.70;99.90;;;;;;5040726;28;20446;-26
2024/01/04 07:53:14;;;;;;;5.27;2.47;;;10.70;99.90;;;;;;5037451;28;20819;-26
2024/01/04 07:55:40;;;;;;;3.50;2.10;;;10.70;99.90;;;;;;5040725;28;20596;-27
2024/01/04 07:58:08;;;;;;;4.27;2.00;;;10.70;99.90;;;;;;5035579;28;20461;-25
2024/01/04 08:00:36;;;;;;;2.50;2.30;;;10.70;99.90;;;;;;5034737;28;20434;-26
2024/01/04 08:03:04;;;;;;;2.23;2.03;;;10.70;99.90;;;;;;5022059;28;20462;-24
2024/01/04 08:05:30;;;;;;;3.00;2.37;;;10.70;99.90;;;;;;5039002;28;20477;-27
2024/01/04 08:07:57;;;;;;;4.97;2.37;;;10.70;99.90;;;;;;5039670;28;20573;-26
2024/01/04 08:10:29;;;;;;;3.97;2.23;;;10.70;99.90;;;;;;5041879;28;20485;-25
2024/01/04 08:12:56;;;;;;;2.47;2.27;;;10.70;99.90;;;;;;5038703;28;20434;-25
2024/01/04 08:15:23;;;;;;;3.50;2.90;;;10.70;99.90;;;;;;5037000;28;21394;-24
2024/01/04 08:17:55;;;;;;;4.90;2.10;;;10.70;99.90;;;;;;5036400;28;20453;-24
2024/01/04 08:20:21;;;;;;;2.50;2.13;;;10.70;99.90;;;;;;5039142;28;20446;-24
2024/01/04 08:22:49;;;;;;;2.87;2.30;;;10.70;99.90;;;;;;5038746;28;20437;-27
2024/01/04 08:25:15;;;;;;;2.97;2.67;;;10.70;99.90;;;;;;5039858;28;20188;-24
2024/01/04 08:27:44;;;;;;;2.80;2.33;;;10.70;99.90;;;;;;5037974;28;20453;-27
2024/01/04 08:30:13;;;;;;;2.53;2.30;;;10.70;99.90;;;;;;5039671;28;20435;-26
2024/01/04 08:32:44;;;;;;;2.70;2.40;;;10.70;99.90;;;;;;5035089;28;20426;-24
2024/01/04 08:35:10;;;;;;;4.30;2.80;;;10.70;99.90;;;;;;5037682;28;20472;-24
2024/01/04 08:37:36;;;;;;;3.40;2.50;;;10.70;99.90;;;;;;5028701;28;20509;-24
2024/01/04 08:40:04;;;;;;;3.13;2.20;;;10.70;99.90;;;;;;5033535;28;20434;-26
2024/01/04 08:42:31;;;;;;;3.47;2.60;;;10.70;99.90;;;;;;5037279;28;20473;-24
2024/01/04 08:44:58;;;;;;;5.60;2.97;;;10.70;99.90;;;;;;5038611;28;20535;-26
2024/01/04 08:47:28;;;;;;;3.27;2.13;;;10.70;99.90;;;;;;5037293;28;20474;-25
2024/01/04 08:49:58;;;;;;;2.83;2.60;;;10.70;99.90;;;;;;5041059;28;20431;-25
2024/01/04 08:52:27;;;;;;;3.30;2.97;;;10.70;99.90;;;;;;5035699;28;20496;-26
2024/01/04 08:54:53;;;;;;;2.80;2.60;;;10.70;99.90;;;;;;5044883;28;20534;-27
2024/01/04 08:57:19;;;;;;;2.90;2.70;;;10.70;99.90;;;;;;5031647;28;20969;-24
2024/01/04 08:59:45;;;;;;;4.10;3.30;;;10.70;99.90;;;;;;5033763;28;20447;-26
2024/01/04 09:02:17;;;;;;;4.50;2.80;;;10.70;99.90;;;;;;5010573;28;20500;-27
2024/01/04 09:04:46;;;;;;;4.50;2.80;;;10.70;99.90;;;;;;5038204;28;21028;-37
2024/01/04 09:07:12;;;;;;;6.73;2.80;;;10.70;99.90;;;;;;5033464;28;20871;-26
2024/01/04 09:09:40;;;;;;;3.60;2.80;;;10.60;99.90;;;;;;5028050;28;20574;-26
2024/01/04 09:12:06;;;;;;;4.20;2.90;;;10.70;99.90;;;;;;5037737;28;20450;-27
2024/01/04 09:14:35;;;;;;;3.53;2.97;;;10.70;99.90;;;;;;5025503;28;20804;-25
2024/01/04 09:17:01;;;;;;;4.20;3.17;;;10.70;99.90;;;;;;5034383;28;21021;-24
2024/01/04 09:19:31;;;;;;;4.57;3.07;;;10.70;99.90;;;;;;5036776;28;20443;-27
2024/01/04 09:22:00;;;;;;;3.20;2.60;;;10.70;99.90;;;;;;5025683;28;20428;-27
2024/01/04 09:24:28;;;;;;;3.80;3.13;;;10.70;99.90;;;;;;5040797;28;21054;-28
2024/01/04 09:26:54;;;;;;;3.73;3.07;;;10.70;99.90;;;;;;5036018;28;20427;-26
2024/01/04 09:29:21;;;;;;;5.90;2.93;;;10.70;99.90;;;;;;5040122;28;21305;-28
2024/01/04 09:31:47;;;;;;;4.77;3.10;;;10.70;99.90;;;;;;5037212;28;20439;-27
2024/01/04 09:34:15;;;;;;;4.40;3.63;;;10.70;99.90;;;;;;5016073;28;20435;-30
2024/01/04 09:36:41;;;;;;;3.73;3.30;;;10.70;99.90;;;;;;5037916;28;20447;-30
2024/01/04 09:39:07;;;;;;;3.30;3.00;;;10.70;99.90;;;;;;5024394;28;20465;-30
2024/01/04 09:41:36;;;;;;;7.13;3.43;;;10.70;99.90;;;;;;5028452;28;20969;-31
2024/01/04 09:44:03;;;;;;;3.80;3.30;;;10.70;99.90;;;;;;5036170;28;20465;-31
2024/01/04 09:46:37;;;;;;;5.73;3.30;;;10.70;99.90;;;;;;5032312;28;21319;-30
2024/01/04 09:49:04;;;;;;;5.90;3.57;;;10.70;99.90;;;;;;5033160;28;20470;-30
2024/01/04 09:51:34;;;;;;;4.57;3.60;;;10.70;99.90;;;;;;5034681;28;20450;-31
2024/01/04 09:54:04;;;;;;;5.60;3.47;;;10.70;99.90;;;;;;5031703;28;20436;-30
2024/01/04 09:56:32;;;;;;;4.50;3.77;;;10.70;99.90;;;;;;5035034;28;21377;-31
2024/01/04 09:59:02;;;;;;;5.03;3.40;;;10.70;99.90;;;;;;5013308;28;21120;-30
2024/01/04 10:01:35;;;;;;;3.40;3.10;;;10.70;99.90;;;;;;5029486;28;20442;-30
2024/01/04 10:04:11;;;;;;;6.73;2.93;;;10.70;99.90;;;;;;5036269;28;20435;-30
2024/01/04 10:06:40;;;;;;;5.97;2.70;;;10.70;99.90;;;;;;5032237;28;20513;-30
2024/01/04 10:09:55;;;;;;;4.17;2.70;;;10.70;99.90;;;;;;5037205;28;20478;-31
2024/01/04 10:12:21;;;;;;;4.27;3.43;;;10.70;99.90;;;;;;5017256;28;20443;-30
2024/01/04 10:14:48;;;;;;;6.60;3.37;;;10.70;99.90;;;;;;5021131;28;20454;-30
2024/01/04 10:17:16;;;;;;;4.33;2.40;;;10.70;99.90;;;;;;5016279;28;20435;-30
2024/01/04 10:19:42;;;;;;;5.17;2.83;;;10.70;99.90;;;;;;5031990;28;20509;-30
2024/01/04 10:22:08;;;;;;;4.57;2.30;;;10.70;99.90;;;;;;5031120;28;20786;-30
2024/01/04 10:24:37;;;;;;;3.93;2.53;;;10.70;99.90;;;;;;5031119;28;20521;-30
2024/01/04 10:27:05;;;;;;;2.80;2.37;;;10.70;99.90;;;;;;5026736;28;20446;-30
2024/01/04 10:29:35;;;;;;;3.40;2.67;;;10.70;99.90;;;;;;5027982;28;20485;-30
2024/01/04 10:32:05;;;;;;;4.73;3.10;;;10.70;99.90;;;;;;5034629;28;20452;-30
2024/01/04 10:34:34;;;;;;;4.07;2.80;;;10.70;99.90;;;;;;5033829;28;20421;-30
2024/01/04 10:37:11;;;;;;;6.23;2.93;;;10.70;99.90;;;;;;5035335;28;20491;-30
2024/01/04 10:39:37;;;;;;;4.53;2.30;;;10.70;99.90;;;;;;5026501;28;20513;-30
2024/01/04 10:42:05;;;;;;;2.70;2.50;;;10.70;99.90;;;;;;5036932;28;20932;-30
2024/01/04 10:44:33;;;;;;;2.87;2.00;;;10.70;99.90;;;;;;5035779;28;20434;-30
2024/01/04 10:47:01;;;;;;;4.97;2.67;;;10.70;99.90;;;;;;5032306;28;20439;-29
2024/01/04 10:49:27;;;;;;;3.00;2.70;;;10.70;99.90;;;;;;5035247;28;20478;-29
2024/01/04 10:51:56;;;;;;;4.20;2.90;;;10.70;99.90;;;;;;5018442;28;20585;-30
2024/01/04 10:54:37;;;;;;;3.87;2.70;;;10.70;99.90;;;;;;5033080;28;20513;-30
2024/01/04 10:57:03;;;;;;;3.20;2.47;;;10.70;99.90;;;;;;5028521;28;20424;-30
2024/01/04 10:59:34;;;;;;;3.93;3.07;;;10.70;99.90;;;;;;5034884;28;20419;-30
2024/01/04 11:02:05;;;;;;;3.60;2.80;;;10.70;99.90;;;;;;5027153;28;20462;-30
2024/01/04 11:04:36;;;;;;;3.30;2.97;;;10.70;99.90;;;;;;5034509;28;20480;-29
2024/01/04 11:07:06;;;;;;;5.23;2.80;;;10.70;99.90;;;;;;5032668;28;20845;-30
2024/01/04 11:09:34;;;;;;;4.00;3.20;;;10.70;99.90;;;;;;5031163;28;20471;-30
2024/01/04 11:12:03;;;;;;;3.63;3.13;;;10.70;99.90;;;;;;5035408;28;20512;-30
2024/01/04 11:14:32;;;;;;;3.77;3.47;;;10.70;99.90;;;;;;5032404;28;20530;-30
2024/01/04 11:17:25;;;;;;;3.47;2.73;;;10.70;99.90;;;;;;5003170;28;20454;-30
2024/01/04 11:20:16;;;;;;;3.60;3.10;;;10.70;99.90;;;;;;5030314;28;20956;-29
2024/01/04 11:23:01;;;;;;;4.00;3.63;;;10.70;99.90;;;;;;5023315;28;20430;-30
2024/01/04 11:25:49;;;;;;;2.83;2.63;;;10.70;99.90;;;;;;5023613;28;20451;-30
2024/01/04 11:28:16;;;;;;;7.47;3.40;;;10.70;99.90;;;;;;5027116;28;20519;-23
2024/01/04 11:30:42;;;;;;;3.73;3.33;;;10.70;99.90;;;;;;5034029;28;20426;-25
2024/01/04 11:33:09;;;;;;;4.47;3.63;;;10.70;99.90;;;;;;5022055;28;20525;-26
2024/01/04 11:35:38;;;;;;;4.33;3.37;;;10.70;99.90;;;;;;5027345;28;20513;-26
2024/01/04 11:38:07;;;;;;;4.10;3.70;;;10.70;99.90;;;;;;5033127;28;20487;-26
2024/01/04 11:40:37;;;;;;;3.87;3.47;;;10.70;99.90;;;;;;5035202;28;20442;-23
2024/01/04 11:43:16;;;;;;;3.77;3.40;;;10.80;99.90;;;;;;5032964;28;20527;-25
2024/01/04 11:45:46;;;;;;;3.50;3.20;;;10.70;99.90;;;;;;5030512;28;20427;-25
2024/01/04 11:48:20;;;;;;;4.00;3.60;;;10.70;99.90;;;;;;5033901;28;20475;-24
2024/01/04 11:50:51;;;;;;;3.83;3.43;;;10.70;99.90;;;;;;5013755;28;20458;-25
2024/01/04 11:53:23;;;;;;;3.97;3.50;;;10.80;99.90;;;;;;4993990;28;21035;-24
2024/01/04 11:55:49;;;;;;;4.30;3.73;;;10.70;99.90;;;;;;5031912;28;20442;-31
2024/01/04 11:58:28;;;;;;;4.57;3.20;;;10.70;99.90;;;;;;5030141;28;20442;-24
2024/01/04 12:00:56;;;;;;;4.17;3.30;;;10.70;99.90;;;;;;5029227;28;20430;-23
2024/01/04 12:03:28;;;;;;;3.73;3.33;;;10.80;99.90;;;;;;5037580;28;20881;-26
2024/01/04 12:06:02;;;;;;;6.70;4.30;;;10.80;99.90;;;;;;5038736;28;20910;-24
2024/01/04 12:08:32;;;;;;;3.40;3.10;;;10.70;99.90;;;;;;5046595;28;20530;-26
2024/01/04 12:11:04;;;;;;;4.13;3.73;;;10.70;99.90;;;;;;5030222;28;20964;-25
2024/01/04 12:13:30;;;;;;;3.57;3.27;;;10.70;99.90;;;;;;5039897;28;20571;-26
2024/01/04 12:15:56;;;;;;;5.97;3.47;;;10.70;99.90;;;;;;5014510;28;20850;-26
2024/01/04 12:18:25;;;;;;;3.77;3.40;;;10.70;99.90;;;;;;4997566;28;20474;-24
2024/01/04 12:20:51;;;;;;;3.80;3.50;;;10.80;99.90;;;;;;5036036;28;20427;-27
2024/01/04 12:23:17;;;;;;;3.70;3.40;;;10.70;99.90;;;;;;5039689;28;20423;-25
2024/01/04 12:25:44;;;;;;;4.17;3.77;;;10.80;99.90;;;;;;5041510;28;20580;-24
2024/01/04 12:28:13;;;;;;;3.50;3.00;;;10.80;99.90;;;;;;5031680;28;20471;-26
2024/01/04 12:30:40;;;;;;;3.73;3.43;;;10.80;99.90;;;;;;5033911;28;20423;-24
2024/01/04 12:33:11;;;;;;;4.10;3.40;;;10.80;99.90;;;;;;5046002;28;20479;-23
2024/01/04 12:35:39;;;;;;;6.20;3.60;;;10.80;99.90;;;;;;5037381;28;20419;-25
2024/01/04 12:38:06;;;;;;;3.53;3.20;;;10.80;99.90;;;;;;5038233;28;20462;-24
2024/01/04 12:40:42;;;;;;;5.23;3.30;;;10.80;99.90;;;;;;5034788;28;21469;-25
2024/01/04 12:43:13;;;;;;;3.33;3.03;;;10.80;99.90;;;;;;5038771;28;20466;-26
2024/01/04 12:45:42;;;;;;;5.00;3.70;;;10.80;99.90;;;;;;5026201;28;20428;-25
2024/01/04 12:48:08;;;;;;;5.07;2.97;;;10.80;99.90;;;;;;5032533;28;20860;-25
2024/01/04 12:50:38;;;;;;;5.13;3.27;;;10.80;99.90;;;;;;5034286;28;20474;-25
2024/01/04 12:53:10;;;;;;;3.37;2.97;;;10.80;99.90;;;;;;5026072;28;20815;-26